Time;durP1;ratioP1;P1;durP2;ratioP2;P2;SDS_P1;SDS_P2;PMS_P1;PMS_P2;Temp;Humidity;BMP_temperature;BMP_pressure;BME280_temperature;BME280_humidity;BME280_pressure;Samples;Min_cycle;Max_cycle;Signal;HPM_P1;HPM_P2
2022/01/08 00:00:40;;;;;;;1.60;1.40;;;2.10;99.90;;;;;;5035095;28;20049;-79
2022/01/08 00:03:07;;;;;;;1.65;1.55;;;2.10;99.90;;;;;;5052663;28;20135;-80
2022/01/08 00:05:34;;;;;;;3.65;2.25;;;2.10;99.90;;;;;;5035543;28;20410;-79
2022/01/08 00:08:01;;;;;;;1.60;1.50;;;2.10;99.90;;;;;;5035419;28;20041;-79
2022/01/08 00:10:28;;;;;;;2.50;1.80;;;2.10;99.90;;;;;;5035185;28;20470;-79
2022/01/08 00:13:01;;;;;;;2.20;2.03;;;2.10;99.90;;;;;;5034633;28;20057;-79
2022/01/08 00:15:28;;;;;;;2.08;1.98;;;2.10;99.90;;;;;;5034723;28;20045;-79
2022/01/08 00:17:55;;;;;;;1.65;1.52;;;2.00;99.90;;;;;;5052554;28;20049;-78
2022/01/08 00:20:21;;;;;;;2.25;2.15;;;2.00;99.90;;;;;;5051713;28;20501;-79
2022/01/08 00:22:53;;;;;;;2.67;2.20;;;1.90;99.90;;;;;;5054822;28;20132;-79
2022/01/08 00:25:19;;;;;;;2.22;2.13;;;1.90;99.90;;;;;;5038849;28;20080;-79
2022/01/08 00:27:47;;;;;;;3.25;2.00;;;1.90;99.90;;;;;;5054488;28;20053;-80
2022/01/08 00:30:15;;;;;;;2.30;1.90;;;2.00;99.90;;;;;;5035934;28;20443;-79
2022/01/08 00:32:41;;;;;;;2.88;2.10;;;2.00;99.90;;;;;;5035513;28;20464;-76
2022/01/08 00:35:10;;;;;;;2.28;2.08;;;2.00;99.90;;;;;;5053066;28;20070;-77
2022/01/08 00:37:37;;;;;;;2.60;2.40;;;2.10;99.90;;;;;;5051890;28;20119;-77
2022/01/08 00:40:09;;;;;;;1.80;1.70;;;2.10;99.90;;;;;;5052186;28;20076;-76
2022/01/08 00:42:37;;;;;;;2.70;2.50;;;2.10;99.90;;;;;;5034265;28;20052;-77
2022/01/08 00:45:05;;;;;;;1.85;1.75;;;2.10;99.90;;;;;;5034533;28;20139;-78
2022/01/08 00:47:32;;;;;;;2.10;1.90;;;2.20;99.90;;;;;;5033995;28;20049;-76
2022/01/08 00:49:59;;;;;;;3.42;2.30;;;2.20;99.90;;;;;;5052215;28;20049;-78
2022/01/08 00:52:27;;;;;;;2.42;2.13;;;2.20;99.90;;;;;;5052443;28;20088;-78
2022/01/08 00:54:55;;;;;;;3.90;2.65;;;2.20;99.90;;;;;;5034217;28;20069;-78
2022/01/08 00:57:21;;;;;;;2.72;2.50;;;2.20;99.90;;;;;;5036157;28;20140;-76
2022/01/08 00:59:50;;;;;;;2.60;2.40;;;2.10;99.90;;;;;;5046566;22;20048;-79
2022/01/08 01:02:17;;;;;;;2.70;2.50;;;2.10;99.90;;;;;;5093791;28;20051;-77
2022/01/08 01:04:44;;;;;;;2.50;2.30;;;2.10;99.90;;;;;;5100899;28;20067;-76
2022/01/08 01:07:19;;;;;;;2.78;2.50;;;2.10;99.90;;;;;;5077598;28;20052;-77
2022/01/08 01:09:46;;;;;;;3.25;2.88;;;2.00;99.90;;;;;;5076862;28;20666;-77
2022/01/08 01:12:13;;;;;;;2.55;2.45;;;2.00;99.90;;;;;;5076418;28;20044;-77
2022/01/08 01:15:00;;;;;;;4.35;3.00;;;2.00;99.90;;;;;;5093753;28;20135;-77
2022/01/08 01:17:27;;;;;;;3.42;3.10;;;2.00;99.90;;;;;;5076477;28;20473;-77
2022/01/08 01:19:54;;;;;;;2.95;2.75;;;1.90;99.90;;;;;;5077978;28;20044;-78
2022/01/08 01:22:26;;;;;;;3.08;2.70;;;1.90;99.90;;;;;;5076927;28;20130;-76
2022/01/08 01:25:00;;;;;;;3.25;3.05;;;1.80;99.90;;;;;;5094129;28;20086;-77
2022/01/08 01:30:20;;;;;;;3.80;3.20;;;1.60;99.90;;;;;;5093864;28;20115;-76
2022/01/08 01:41:38;;;;;;;3.35;3.10;;;1.50;99.90;;;;;;5094048;28;20504;-77
2022/01/08 01:49:24;;;;;;;2.58;2.47;;;1.50;99.90;;;;;;5095048;28;20079;-77
2022/01/08 01:51:50;;;;;;;2.58;2.47;;;1.50;99.90;;;;;;5076358;28;20182;-76
2022/01/08 01:54:17;;;;;;;2.78;2.63;;;1.40;99.90;;;;;;5075679;28;20122;-76
2022/01/08 01:56:44;;;;;;;3.22;2.90;;;1.40;99.90;;;;;;5075707;28;20127;-76
2022/01/08 01:59:13;;;;;;;2.70;2.50;;;1.40;99.90;;;;;;5092377;28;20083;-76
2022/01/08 02:01:40;;;;;;;2.42;2.22;;;1.40;99.90;;;;;;5076281;28;20131;-77
2022/01/08 02:04:07;;;;;;;2.80;2.60;;;1.30;99.90;;;;;;5073349;28;20047;-76
2022/01/08 02:06:33;;;;;;;2.90;2.70;;;1.30;99.90;;;;;;5055636;28;20076;-76
2022/01/08 02:09:00;;;;;;;2.63;2.50;;;1.30;99.90;;;;;;4971958;28;20074;-77
2022/01/08 02:11:27;;;;;;;3.47;3.15;;;1.20;99.90;;;;;;4972009;28;20137;-77
2022/01/08 02:14:04;;;;;;;3.22;2.95;;;1.20;99.90;;;;;;5055970;28;20131;-76
2022/01/08 02:16:31;;;;;;;3.60;3.30;;;1.10;99.90;;;;;;5105881;22;20074;-79
2022/01/08 02:18:58;;;;;;;3.28;3.08;;;1.10;99.90;;;;;;5115559;28;20140;-79
2022/01/08 02:21:28;;;;;;;3.70;2.88;;;1.10;99.90;;;;;;5098249;28;20099;-79
2022/01/08 02:23:55;;;;;;;3.78;2.60;;;1.10;99.90;;;;;;5097490;28;20040;-79
2022/01/08 02:26:21;;;;;;;2.42;2.33;;;1.10;99.90;;;;;;5097860;28;20067;-79
2022/01/08 02:28:48;;;;;;;2.90;2.70;;;1.10;99.90;;;;;;5097639;28;20058;-79
2022/01/08 02:31:22;;;;;;;3.08;2.78;;;1.00;99.90;;;;;;5114918;28;20051;-79
2022/01/08 02:33:49;;;;;;;3.40;2.65;;;1.10;99.90;;;;;;5117158;28;20107;-79
2022/01/08 02:36:16;;;;;;;4.03;3.05;;;1.10;99.90;;;;;;5117253;28;20052;-79
2022/01/08 02:38:43;;;;;;;5.18;3.08;;;1.10;99.90;;;;;;5115998;28;20138;-79
2022/01/08 02:41:10;;;;;;;2.55;2.35;;;1.10;99.90;;;;;;5116433;28;20081;-79
2022/01/08 02:43:44;;;;;;;3.10;2.90;;;1.10;99.90;;;;;;5117611;28;20534;-79
2022/01/08 02:46:12;;;;;;;3.25;3.00;;;1.10;99.90;;;;;;5099348;28;20058;-79
2022/01/08 02:48:39;;;;;;;2.70;2.50;;;1.10;99.90;;;;;;5099609;28;20126;-79
2022/01/08 02:51:06;;;;;;;2.53;2.42;;;1.10;99.90;;;;;;5100926;28;20074;-79
2022/01/08 02:53:33;;;;;;;2.05;1.90;;;1.10;99.90;;;;;;5100005;28;20070;-79
2022/01/08 02:55:59;;;;;;;2.45;2.35;;;1.10;99.90;;;;;;5100544;28;20055;-79
2022/01/08 02:58:28;;;;;;;2.67;2.53;;;1.10;99.90;;;;;;5102464;28;20473;-79
2022/01/08 03:00:58;;;;;;;2.72;2.50;;;1.10;99.90;;;;;;5102601;28;20067;-79
2022/01/08 03:03:25;;;;;;;3.08;2.20;;;1.10;99.90;;;;;;5121369;28;20039;-79
2022/01/08 03:05:52;;;;;;;3.78;2.22;;;1.20;99.90;;;;;;5123922;28;20044;-79
2022/01/08 03:08:19;;;;;;;2.13;2.03;;;1.20;99.90;;;;;;5125734;28;20043;-79
2022/01/08 03:10:54;;;;;;;2.38;2.17;;;1.20;99.90;;;;;;5109358;28;20048;-80
2022/01/08 03:13:21;;;;;;;3.40;3.10;;;1.20;99.90;;;;;;5108492;28;20556;-80
2022/01/08 03:15:49;;;;;;;3.42;3.15;;;1.20;99.90;;;;;;5109554;28;20112;-80
2022/01/08 03:18:41;;;;;;;3.17;2.92;;;1.30;99.90;;;;;;5108960;28;20066;-80
2022/01/08 03:21:14;;;;;;;3.15;2.75;;;1.40;99.90;;;;;;5111865;28;20047;-79
2022/01/08 03:23:54;;;;;;;3.67;2.33;;;1.50;99.90;;;;;;5135052;28;20034;-79
2022/01/08 03:26:24;;;;;;;3.95;2.80;;;1.50;99.90;;;;;;5106124;28;20368;-78
2022/01/08 03:28:53;;;;;;;3.15;2.60;;;1.50;99.90;;;;;;5118523;28;20077;-76
2022/01/08 03:34:05;;;;;;;2.70;2.50;;;1.60;99.90;;;;;;4855851;26;20057;-76
2022/01/08 03:36:32;;;;;;;3.10;2.40;;;1.50;99.90;;;;;;5032328;28;20140;-76
2022/01/08 03:38:59;;;;;;;3.05;2.50;;;1.50;99.90;;;;;;5032614;28;20486;-76
2022/01/08 03:41:26;;;;;;;3.75;2.13;;;1.50;99.90;;;;;;5032417;28;20067;-76
2022/01/08 03:43:53;;;;;;;1.88;1.77;;;1.40;99.90;;;;;;5032207;28;20484;-76
2022/01/08 03:46:27;;;;;;;2.42;2.22;;;1.40;99.90;;;;;;5015165;28;20053;-76
2022/01/08 03:51:31;;;;;;;1.88;1.77;;;1.40;99.90;;;;;;5032245;28;20057;-76
2022/01/08 03:53:59;;;;;;;2.20;2.05;;;1.30;99.90;;;;;;5100156;28;20054;-76
2022/01/08 03:56:25;;;;;;;2.50;2.30;;;1.30;99.90;;;;;;5032340;28;20159;-76
2022/01/08 03:58:52;;;;;;;3.88;2.30;;;1.20;99.90;;;;;;5032578;28;20060;-77
2022/01/08 04:01:20;;;;;;;2.22;2.10;;;1.20;99.90;;;;;;5032211;28;20140;-76
2022/01/08 04:03:47;;;;;;;2.67;2.10;;;1.30;99.90;;;;;;5014991;28;20084;-76
2022/01/08 04:06:14;;;;;;;2.88;2.45;;;1.20;99.90;;;;;;5032794;28;20042;-76
2022/01/08 04:08:40;;;;;;;3.50;2.70;;;1.20;99.90;;;;;;5032989;28;20144;-76
2022/01/08 04:11:07;;;;;;;2.05;1.95;;;1.20;99.90;;;;;;5032838;28;20083;-76
2022/01/08 04:13:39;;;;;;;2.33;2.13;;;1.20;99.90;;;;;;5032563;28;20055;-77
2022/01/08 04:16:11;;;;;;;2.53;2.40;;;1.20;99.90;;;;;;5032029;28;20072;-77
2022/01/08 04:18:38;;;;;;;3.33;2.97;;;1.20;99.90;;;;;;5014880;28;20077;-77
2022/01/08 04:21:45;;;;;;;3.10;2.90;;;1.10;99.90;;;;;;5017617;28;20282;-77
2022/01/08 04:24:01;;;;;;;2.90;2.42;;;1.10;99.90;;;;;;5040856;28;20072;-77
2022/01/08 04:26:27;;;;;;;3.53;3.22;;;1.10;99.90;;;;;;5033748;28;20464;-76
2022/01/08 04:28:58;;;;;;;3.80;3.60;;;1.00;99.90;;;;;;5018050;28;20071;-80
2022/01/08 04:31:26;;;;;;;4.28;4.03;;;1.00;99.90;;;;;;5042184;28;20069;-80
2022/01/08 04:33:53;;;;;;;4.43;4.00;;;1.00;99.90;;;;;;5025215;28;20045;-79
2022/01/08 04:36:20;;;;;;;3.85;3.50;;;1.00;99.90;;;;;;5043712;28;20050;-80
2022/01/08 04:38:48;;;;;;;8.90;4.82;;;1.00;99.90;;;;;;5026827;28;20081;-80
2022/01/08 04:41:15;;;;;;;6.53;5.03;;;1.00;99.90;;;;;;5046159;28;20045;-80
2022/01/08 04:43:48;;;;;;;4.72;4.32;;;1.00;99.90;;;;;;5049943;28;20109;-80
2022/01/08 04:46:14;;;;;;;7.90;5.40;;;1.00;99.90;;;;;;5047273;22;20079;-82
2022/01/08 04:48:41;;;;;;;5.38;4.85;;;1.00;99.90;;;;;;5017875;28;20484;-82
2022/01/08 04:51:08;;;;;;;5.80;5.20;;;1.00;99.90;;;;;;5018580;28;20080;-82
2022/01/08 04:53:35;;;;;;;5.55;5.05;;;1.00;99.90;;;;;;5017280;28;20117;-81
2022/01/08 04:56:02;;;;;;;6.40;5.35;;;0.90;99.90;;;;;;5018290;28;20081;-84
2022/01/08 04:58:29;;;;;;;5.63;5.13;;;1.00;99.90;;;;;;5037613;23;20153;-81
2022/01/08 05:00:56;;;;;;;5.57;5.07;;;1.00;99.90;;;;;;5014044;28;20053;-81
2022/01/08 05:03:23;;;;;;;8.55;5.50;;;1.00;99.90;;;;;;5031383;28;20494;-81
2022/01/08 05:05:50;;;;;;;8.60;5.22;;;1.00;99.90;;;;;;5013942;28;20498;-81
2022/01/08 05:08:17;;;;;;;5.30;4.70;;;1.10;99.90;;;;;;5014283;28;20480;-81
2022/01/08 05:10:44;;;;;;;5.50;4.65;;;1.10;99.90;;;;;;5013752;28;20407;-81
2022/01/08 05:13:10;;;;;;;5.53;5.00;;;1.10;99.90;;;;;;5014040;28;20063;-81
2022/01/08 05:15:37;;;;;;;5.78;5.10;;;1.10;99.90;;;;;;5013974;28;20203;-81
2022/01/08 05:18:06;;;;;;;6.60;5.90;;;1.00;99.90;;;;;;5013504;28;20141;-81
2022/01/08 05:20:36;;;;;;;6.65;5.47;;;0.90;99.90;;;;;;5013798;28;20140;-81
2022/01/08 05:23:04;;;;;;;6.72;5.60;;;1.00;99.90;;;;;;5013783;28;20145;-81
2022/01/08 05:25:31;;;;;;;7.45;5.65;;;1.00;99.90;;;;;;5013495;28;20081;-81
2022/01/08 05:27:58;;;;;;;8.93;5.90;;;1.10;99.90;;;;;;5013218;28;20073;-81
2022/01/08 05:30:26;;;;;;;7.03;5.18;;;1.00;99.90;;;;;;5013267;28;20195;-81
2022/01/08 05:32:53;;;;;;;6.22;5.63;;;1.00;99.90;;;;;;5014060;28;20114;-81
2022/01/08 05:35:22;;;;;;;7.03;5.93;;;1.00;99.90;;;;;;5013854;28;20072;-81
2022/01/08 05:37:49;;;;;;;7.78;5.80;;;1.10;99.90;;;;;;5031108;28;20136;-81
2022/01/08 05:40:16;;;;;;;7.93;6.13;;;1.00;99.90;;;;;;5013729;28;20080;-81
2022/01/08 05:42:43;;;;;;;7.55;5.93;;;1.00;99.90;;;;;;5030976;28;20410;-81
2022/01/08 05:45:10;;;;;;;7.88;6.90;;;0.90;99.90;;;;;;5030914;28;20512;-82
2022/01/08 05:47:37;;;;;;;9.05;6.97;;;0.90;99.90;;;;;;5013465;28;20571;-81
2022/01/08 05:50:05;;;;;;;7.60;6.88;;;1.00;99.90;;;;;;5013542;28;20084;-82
2022/01/08 05:52:32;;;;;;;10.35;7.22;;;1.00;99.90;;;;;;5013788;28;20132;-81
2022/01/08 05:54:59;;;;;;;11.23;7.22;;;1.00;99.90;;;;;;5031527;28;20470;-82
2022/01/08 05:57:25;;;;;;;7.18;6.38;;;1.00;99.90;;;;;;5013764;28;20073;-81
2022/01/08 05:59:52;;;;;;;7.53;6.63;;;1.00;99.90;;;;;;5013180;28;20057;-80
2022/01/08 06:02:19;;;;;;;10.60;7.22;;;1.10;99.90;;;;;;5013575;28;20458;-82
2022/01/08 06:04:46;;;;;;;8.57;6.95;;;1.00;99.90;;;;;;5031090;28;20049;-82
2022/01/08 06:07:14;;;;;;;8.07;6.53;;;0.90;99.90;;;;;;5012827;28;20094;-82
2022/01/08 06:09:40;;;;;;;7.80;6.95;;;0.90;99.90;;;;;;5031063;28;20414;-82
2022/01/08 06:12:08;;;;;;;7.57;6.90;;;0.90;99.90;;;;;;5013515;28;20045;-82
2022/01/08 06:14:35;;;;;;;9.13;8.00;;;1.00;99.90;;;;;;5012901;28;20049;-82
2022/01/08 06:17:02;;;;;;;10.15;7.35;;;1.00;99.90;;;;;;5013096;28;20061;-81
2022/01/08 06:19:29;;;;;;;11.38;8.55;;;0.90;99.90;;;;;;5012504;28;20485;-82
2022/01/08 06:21:55;;;;;;;13.95;8.70;;;1.00;99.90;;;;;;5013370;28;20076;-81
2022/01/08 06:24:22;;;;;;;9.75;7.90;;;0.90;99.90;;;;;;5013171;28;20049;-83
2022/01/08 06:26:49;;;;;;;13.05;8.75;;;0.90;99.90;;;;;;5030857;28;20105;-82
2022/01/08 06:29:16;;;;;;;16.80;9.55;;;0.90;99.90;;;;;;5013175;28;20133;-83
2022/01/08 06:31:43;;;;;;;12.20;8.80;;;0.80;99.90;;;;;;5012832;28;20540;-82
2022/01/08 06:34:10;;;;;;;11.18;8.35;;;0.90;99.90;;;;;;5013423;28;20049;-83
2022/01/08 06:36:36;;;;;;;10.75;8.25;;;0.90;99.90;;;;;;5013167;28;20050;-83
2022/01/08 06:39:03;;;;;;;10.77;7.43;;;1.00;99.90;;;;;;5013176;28;20125;-84
2022/01/08 06:41:30;;;;;;;9.07;8.07;;;1.00;99.90;;;;;;5016509;28;20053;-83
2022/01/08 06:43:57;;;;;;;10.02;8.27;;;1.00;99.90;;;;;;5016598;28;20050;-83
2022/01/08 06:46:25;;;;;;;14.55;9.15;;;1.00;99.90;;;;;;5033595;28;20045;-84
2022/01/08 06:48:53;;;;;;;8.45;6.90;;;0.90;99.90;;;;;;5015515;28;20100;-84
2022/01/08 06:51:19;;;;;;;12.40;7.65;;;0.90;99.90;;;;;;5016098;28;20107;-83
2022/01/08 06:53:46;;;;;;;9.52;7.65;;;0.90;99.90;;;;;;5017344;28;20574;-84
2022/01/08 06:56:13;;;;;;;9.55;7.85;;;0.90;99.90;;;;;;5018379;28;20112;-84
2022/01/08 06:58:41;;;;;;;10.18;7.82;;;1.00;99.90;;;;;;5013976;28;20146;-85
2022/01/08 07:01:11;;;;;;;10.38;7.47;;;1.00;99.90;;;;;;4998207;28;20424;-85
2022/01/08 07:03:38;;;;;;;11.63;7.43;;;1.00;99.90;;;;;;5014814;28;20561;-85
2022/01/08 07:06:05;;;;;;;10.18;6.93;;;1.00;99.90;;;;;;4997503;28;20048;-85
2022/01/08 07:08:44;;;;;;;8.52;6.18;;;1.00;99.90;;;;;;4997953;28;20486;-85
2022/01/08 07:11:11;;;;;;;8.32;6.63;;;1.00;99.90;;;;;;4997444;28;20054;-86
2022/01/08 07:13:38;;;;;;;27.52;17.30;;;1.00;99.90;;;;;;4997521;28;20046;-86
2022/01/08 07:16:33;;;;;;;22.05;15.18;;;0.90;99.90;;;;;;4998265;28;20073;-86
2022/01/08 07:19:00;;;;;;;385.48;257.25;;;0.90;99.90;;;;;;4997691;28;20148;-86
2022/01/08 07:21:50;;;;;;;221.35;145.75;;;0.80;99.90;;;;;;4998783;28;20144;-86
2022/01/08 07:24:17;;;;;;;59.35;39.22;;;0.80;99.90;;;;;;4998819;28;20069;-86
2022/01/08 07:26:44;;;;;;;18.55;11.70;;;0.80;99.90;;;;;;4999086;28;20110;-86
2022/01/08 07:29:38;;;;;;;47.47;27.70;;;0.80;99.90;;;;;;4997313;28;20129;-85
2022/01/08 07:32:05;;;;;;;136.52;78.57;;;0.80;99.90;;;;;;4998218;28;20049;-85
2022/01/08 07:34:40;;;;;;;497.65;287.40;;;0.80;99.90;;;;;;4997515;28;20141;-84
2022/01/08 07:37:07;;;;;;;20.60;12.18;;;0.70;99.90;;;;;;4998996;28;20061;-84
2022/01/08 07:39:34;;;;;;;31.15;19.58;;;0.80;99.90;;;;;;4999892;28;20128;-85
2022/01/08 07:42:03;;;;;;;4.15;3.13;;;0.80;99.90;;;;;;4998479;28;20072;-84
2022/01/08 07:44:30;;;;;;;13.32;11.27;;;0.80;99.90;;;;;;4998579;28;20073;-85
2022/01/08 07:46:57;;;;;;;4.45;3.50;;;0.80;99.90;;;;;;4998985;28;20053;-85
2022/01/08 07:49:23;;;;;;;15.88;14.32;;;0.80;99.90;;;;;;4998744;28;20491;-85
2022/01/08 07:51:50;;;;;;;7.43;6.25;;;0.80;99.90;;;;;;4998020;28;20050;-85
2022/01/08 07:54:17;;;;;;;7.53;6.72;;;0.90;99.90;;;;;;4997834;28;20144;-86
2022/01/08 07:56:47;;;;;;;34.60;23.80;;;0.90;99.90;;;;;;4997329;28;20054;-85
2022/01/08 07:59:15;;;;;;;267.58;171.90;;;0.80;99.90;;;;;;4997129;28;20137;-86
2022/01/08 08:01:42;;;;;;;36.95;21.95;;;0.80;99.90;;;;;;5019281;28;20047;-86
2022/01/08 08:04:09;;;;;;;23.23;17.88;;;0.80;99.90;;;;;;5002796;28;20093;-86
2022/01/08 08:06:47;;;;;;;5.43;4.93;;;0.80;99.90;;;;;;5018566;28;20091;-87
2022/01/08 08:09:14;;;;;;;6.75;6.25;;;0.90;99.90;;;;;;4997852;28;20137;-87
2022/01/08 08:11:49;;;;;;;2.13;2.03;;;0.90;99.90;;;;;;5032674;22;20060;-86
2022/01/08 08:14:16;;;;;;;3.58;1.83;;;0.90;99.90;;;;;;5099286;28;20163;-89
2022/01/08 08:16:46;;;;;;;5.20;1.70;;;0.90;99.90;;;;;;5097532;28;20076;-88
2022/01/08 08:19:13;;;;;;;3.30;3.00;;;0.90;99.90;;;;;;5097385;28;20061;-88
2022/01/08 08:21:47;;;;;;;6.50;1.90;;;0.90;99.90;;;;;;5097269;28;20034;-87
2022/01/08 08:24:18;;;;;;;9.02;1.67;;;0.90;99.90;;;;;;5104784;28;20041;-86
2022/01/08 08:26:45;;;;;;;4.95;1.90;;;0.90;99.90;;;;;;5025418;28;20049;-89
2022/01/08 08:29:23;;;;;;;2.25;2.05;;;0.90;99.90;;;;;;5081971;28;20046;-89
2022/01/08 08:31:50;;;;;;;4.15;2.80;;;0.90;99.90;;;;;;5082256;28;20104;-90
2022/01/08 08:34:18;;;;;;;4.28;2.13;;;0.90;99.90;;;;;;5081778;28;20129;-90
2022/01/08 08:36:44;;;;;;;6.15;5.70;;;0.90;99.90;;;;;;5081936;28;20157;-89
2022/01/08 08:39:11;;;;;;;4.35;4.00;;;0.90;99.90;;;;;;5082419;28;20558;-89
2022/01/08 08:41:38;;;;;;;1.52;1.40;;;0.90;99.90;;;;;;5083751;28;20078;-89
2022/01/08 08:44:04;;;;;;;1.73;1.63;;;1.00;99.90;;;;;;5082758;28;20133;-89
2022/01/08 08:46:31;;;;;;;4.00;1.67;;;1.00;99.90;;;;;;5084175;28;20054;-89
2022/01/08 08:48:58;;;;;;;2.97;2.05;;;1.00;99.90;;;;;;5084545;28;20073;-90
2022/01/08 08:51:25;;;;;;;8.05;7.45;;;1.00;99.90;;;;;;5084269;28;20541;-90
2022/01/08 08:53:52;;;;;;;3.47;2.70;;;1.00;99.90;;;;;;5084959;28;20109;-90
2022/01/08 08:56:18;;;;;;;2.35;1.90;;;1.10;99.90;;;;;;5085971;28;20091;-91
2022/01/08 08:58:45;;;;;;;2.47;2.28;;;1.10;99.90;;;;;;5087335;28;20077;-91
2022/01/08 09:01:12;;;;;;;4.00;2.92;;;1.10;99.90;;;;;;5006129;28;20062;-90
2022/01/08 09:03:39;;;;;;;3.22;1.45;;;1.10;99.90;;;;;;5090199;28;20138;-89
2022/01/08 09:06:06;;;;;;;1.67;1.50;;;1.20;99.90;;;;;;5087501;28;20065;-90
2022/01/08 09:08:32;;;;;;;4.70;1.13;;;1.10;99.90;;;;;;5083299;28;20077;-91
2022/01/08 09:10:59;;;;;;;2.83;1.10;;;1.10;99.90;;;;;;5082409;28;20059;-89
2022/01/08 09:13:27;;;;;;;2.22;2.03;;;1.20;99.90;;;;;;5081769;28;20088;-89
2022/01/08 09:15:54;;;;;;;3.20;1.55;;;1.20;99.90;;;;;;5082341;28;20060;-88
2022/01/08 09:18:22;;;;;;;10.13;6.65;;;1.20;99.90;;;;;;5081397;28;20466;-88
2022/01/08 09:20:49;;;;;;;36.33;21.23;;;1.30;99.90;;;;;;5082115;28;20064;-88
2022/01/08 09:23:16;;;;;;;3.55;3.08;;;1.40;99.90;;;;;;5082180;28;20129;-88
2022/01/08 09:25:43;;;;;;;4.47;4.07;;;1.40;99.90;;;;;;5081530;28;20046;-88
2022/01/08 09:28:09;;;;;;;3.28;2.22;;;1.50;99.90;;;;;;5081036;28;20129;-88
2022/01/08 09:30:37;;;;;;;4.57;3.97;;;1.50;99.90;;;;;;5080248;28;20041;-89
2022/01/08 09:33:04;;;;;;;3.10;2.63;;;1.50;99.90;;;;;;5081380;28;20042;-88
2022/01/08 09:35:31;;;;;;;3.70;3.40;;;1.50;99.90;;;;;;5082651;28;20474;-88
2022/01/08 09:37:57;;;;;;;3.80;0.90;;;1.50;99.90;;;;;;5015693;28;20132;-88
2022/01/08 09:40:24;;;;;;;1.73;1.13;;;1.50;99.90;;;;;;5015134;28;20049;-87
2022/01/08 09:42:51;;;;;;;1.98;0.90;;;1.50;99.90;;;;;;5082454;28;20077;-87
2022/01/08 09:45:18;;;;;;;1.35;1.20;;;1.50;99.90;;;;;;5015426;28;20513;-87
2022/01/08 09:47:45;;;;;;;22.25;14.93;;;1.50;99.90;;;;;;5084218;28;20414;-87
2022/01/08 09:50:12;;;;;;;33.50;24.65;;;1.50;99.90;;;;;;5085582;28;20050;-86
2022/01/08 09:52:39;;;;;;;9.32;6.85;;;1.40;99.90;;;;;;5082556;28;20073;-86
2022/01/08 09:55:08;;;;;;;6.15;1.85;;;1.40;99.90;;;;;;5082231;28;20490;-86
2022/01/08 09:57:34;;;;;;;2.70;1.40;;;1.40;99.90;;;;;;5014701;28;20042;-85
2022/01/08 10:00:08;;;;;;;3.22;1.15;;;1.50;99.90;;;;;;5081686;28;20046;-86
2022/01/08 10:02:35;;;;;;;1.48;0.82;;;1.50;99.90;;;;;;5082542;28;20045;-85
2022/01/08 10:05:11;;;;;;;1.38;0.90;;;1.50;99.90;;;;;;5082356;28;20577;-85
2022/01/08 10:07:40;;;;;;;2.17;1.38;;;1.60;99.90;;;;;;5015239;28;20046;-85
2022/01/08 10:10:12;;;;;;;1.98;0.73;;;1.60;99.90;;;;;;5083387;28;20049;-84
2022/01/08 10:12:49;;;;;;;1.20;1.05;;;1.70;99.90;;;;;;5082332;28;20066;-83
2022/01/08 10:18:34;;;;;;;4.80;0.80;;;1.90;99.90;;;;;;4994627;28;20081;-84
2022/01/08 10:21:17;;;;;;;1.38;0.90;;;2.00;99.90;;;;;;5084166;28;20050;-83
2022/01/08 10:23:47;;;;;;;2.85;0.90;;;2.00;99.90;;;;;;5085673;28;20046;-82
2022/01/08 10:26:17;;;;;;;1.45;1.10;;;2.10;99.90;;;;;;5018971;28;20513;-82
2022/01/08 10:28:54;;;;;;;1.48;0.68;;;2.10;99.90;;;;;;5086393;28;20447;-82
2022/01/08 10:31:23;;;;;;;2.70;1.20;;;2.10;99.90;;;;;;5084899;28;20106;-82
2022/01/08 10:34:02;;;;;;;5.05;2.20;;;2.10;99.90;;;;;;5092588;28;20046;-82
2022/01/08 10:36:42;;;;;;;6.32;3.20;;;2.10;99.90;;;;;;5091807;28;20058;-81
2022/01/08 10:39:29;;;;;;;5.25;3.30;;;2.10;99.90;;;;;;5087964;28;20050;-81
2022/01/08 10:41:58;;;;;;;3.92;3.50;;;2.10;99.90;;;;;;5090545;28;20086;-82
2022/01/08 10:44:27;;;;;;;6.70;4.82;;;2.10;99.90;;;;;;5083326;28;20054;-81
2022/01/08 10:46:56;;;;;;;16.92;12.70;;;2.20;99.90;;;;;;5087413;28;20053;-81
2022/01/08 10:49:35;;;;;;;16.45;10.95;;;2.20;99.90;;;;;;5085715;28;20046;-81
2022/01/08 10:52:06;;;;;;;11.52;4.38;;;2.20;99.90;;;;;;5084611;28;20137;-81
2022/01/08 10:54:38;;;;;;;7.15;3.72;;;2.30;99.90;;;;;;5087063;28;20078;-81
2022/01/08 10:57:08;;;;;;;6.38;4.07;;;2.30;99.90;;;;;;5024124;28;20049;-81
2022/01/08 10:59:36;;;;;;;14.63;4.22;;;2.40;99.90;;;;;;5114833;22;20143;-79
2022/01/08 11:02:05;;;;;;;4.10;3.33;;;2.50;99.90;;;;;;5096107;28;20126;-77
2022/01/08 11:04:33;;;;;;;5.82;2.90;;;2.70;99.90;;;;;;5096062;28;20082;-78
2022/01/08 11:07:10;;;;;;;4.65;2.83;;;2.70;99.90;;;;;;5094983;28;20048;-78
2022/01/08 11:09:40;;;;;;;2.50;2.30;;;2.80;99.90;;;;;;5094842;28;20412;-78
2022/01/08 11:12:10;;;;;;;7.63;3.28;;;3.00;99.90;;;;;;5094610;28;20469;-78
2022/01/08 11:17:23;;;;;;;5.70;2.97;;;3.50;99.90;;;;;;5112713;28;20135;-78
2022/01/08 11:19:55;;;;;;;3.40;2.33;;;3.60;99.90;;;;;;5113078;28;20070;-78
2022/01/08 11:22:28;;;;;;;4.33;2.60;;;3.80;99.90;;;;;;5095592;28;20575;-81
2022/01/08 11:25:02;;;;;;;2.40;2.13;;;3.90;99.90;;;;;;5096005;28;20462;-81
2022/01/08 11:27:48;;;;;;;5.30;2.92;;;4.10;99.90;;;;;;5116365;28;20047;-83
2022/01/08 11:30:24;;;;;;;5.00;3.40;;;4.20;99.90;;;;;;5099291;28;20050;-84
2022/01/08 11:32:55;;;;;;;5.25;3.50;;;4.20;99.90;;;;;;5117709;28;20449;-79
2022/01/08 11:35:37;;;;;;;4.53;2.92;;;4.30;99.90;;;;;;5101568;28;20051;-79
2022/01/08 11:38:10;;;;;;;5.05;3.22;;;4.30;99.90;;;;;;5099828;28;20071;-80
2022/01/08 11:40:38;;;;;;;;;;;4.20;99.90;;;;;;5117871;28;20048;-81
2022/01/08 11:43:08;;;;;;;7.13;4.05;;;4.20;99.90;;;;;;5099264;28;19942;-78
2022/01/08 11:45:40;;;;;;;5.88;4.32;;;4.50;99.90;;;;;;5099818;28;20123;-81
2022/01/08 11:48:10;;;;;;;5.97;4.40;;;4.80;99.90;;;;;;5118124;28;20138;-79
2022/01/08 11:50:37;;;;;;;9.98;4.72;;;5.10;99.90;;;;;;5099361;28;20282;-81
2022/01/08 11:53:13;;;;;;;5.38;3.42;;;5.60;99.90;;;;;;5099041;28;20131;-81
2022/01/08 11:55:41;;;;;;;4.13;3.63;;;5.80;99.90;;;;;;5099413;28;20086;-81
2022/01/08 11:58:26;;;;;;;7.07;2.78;;;5.90;99.90;;;;;;5101111;22;20051;-83
2022/01/08 12:01:02;;;;;;;7.68;3.50;;;5.90;99.90;;;;;;5076963;28;20044;-84
2022/01/08 12:03:36;;;;;;;5.07;3.50;;;5.70;99.90;;;;;;5076907;28;20478;-84
2022/01/08 12:06:27;;;;;;;2.88;2.58;;;5.70;99.90;;;;;;5094596;28;20098;-84
2022/01/08 12:11:52;;;;;;;5.65;3.60;;;5.80;99.90;;;;;;5094814;28;20044;-84
2022/01/08 12:14:22;;;;;;;5.32;3.40;;;5.80;99.90;;;;;;5076819;28;20132;-83
2022/01/08 12:16:51;;;;;;;5.50;2.95;;;5.80;99.90;;;;;;5094634;28;20055;-85
2022/01/08 12:19:43;;;;;;;4.50;2.22;;;6.00;99.90;;;;;;5076431;28;20526;-84
2022/01/08 12:22:16;;;;;;;5.57;2.67;;;6.00;99.90;;;;;;5076473;28;20052;-84
2022/01/08 12:24:45;;;;;;;8.70;3.70;;;5.90;99.90;;;;;;5094596;28;20147;-85
2022/01/08 12:27:33;;;;;;;6.88;3.20;;;5.80;99.90;;;;;;5094457;28;20427;-84
2022/01/08 12:30:21;;;;;;;5.28;3.22;;;5.70;99.90;;;;;;5076513;28;20079;-84
2022/01/08 12:32:51;;;;;;;3.22;2.97;;;5.50;99.90;;;;;;5083096;28;20078;-84
2022/01/08 12:35:28;;;;;;;2.88;2.67;;;5.40;99.90;;;;;;5076392;28;20091;-84
2022/01/08 12:38:00;;;;;;;4.30;3.30;;;5.50;99.90;;;;;;5093982;28;20048;-85
2022/01/08 12:40:45;;;;;;;29.65;16.55;;;5.70;99.90;;;;;;5076175;28;20062;-84
2022/01/08 12:43:31;;;;;;;14.60;8.15;;;5.90;99.90;;;;;;5094264;28;20086;-84
2022/01/08 12:46:19;;;;;;;16.42;7.30;;;6.00;99.90;;;;;;5094129;28;20048;-84
2022/01/08 12:49:05;;;;;;;13.50;7.35;;;5.80;99.90;;;;;;5076175;28;20055;-84
2022/01/08 12:51:43;;;;;;;8.50;5.35;;;5.70;99.90;;;;;;5094107;28;20051;-84
2022/01/08 12:54:10;;;;;;;6.90;3.88;;;5.60;99.90;;;;;;5076091;28;20044;-84
2022/01/08 12:56:48;;;;;;;5.10;3.10;;;5.40;99.90;;;;;;5093687;28;20052;-85
2022/01/08 12:59:16;;;;;;;3.80;3.22;;;5.20;99.90;;;;;;5075727;28;20091;-84
2022/01/08 13:01:50;;;;;;;5.03;3.70;;;5.00;99.90;;;;;;5093978;28;20091;-84
2022/01/08 13:04:21;;;;;;;4.78;2.95;;;4.70;99.90;;;;;;5075765;28;20050;-84
2022/01/08 13:06:49;;;;;;;5.22;2.42;;;4.50;99.90;;;;;;5093600;28;20048;-84
2022/01/08 13:09:16;;;;;;;4.97;3.28;;;4.30;99.90;;;;;;5093169;28;20052;-83
2022/01/08 13:11:45;;;;;;;6.55;4.00;;;4.20;99.90;;;;;;5075697;28;20048;-84
2022/01/08 13:14:14;;;;;;;8.77;6.25;;;4.10;99.90;;;;;;5075593;28;20134;-83
2022/01/08 13:16:43;;;;;;;6.78;4.47;;;4.10;99.90;;;;;;5093219;28;20048;-84
2022/01/08 13:19:21;;;;;;;7.10;5.78;;;4.10;99.90;;;;;;5091671;28;20104;-84
2022/01/08 13:21:51;;;;;;;5.82;4.30;;;4.30;99.90;;;;;;5113483;28;20109;-84
2022/01/08 13:24:21;;;;;;;4.38;3.50;;;4.30;99.90;;;;;;5095367;28;20075;-84
2022/01/08 13:27:05;;;;;;;2.05;1.95;;;4.40;99.90;;;;;;5113661;28;20044;-84
2022/01/08 13:29:43;;;;;;;3.60;2.08;;;4.40;99.90;;;;;;5095324;28;20075;-84
2022/01/08 13:32:12;;;;;;;4.53;2.28;;;4.40;99.90;;;;;;5095405;28;20047;-84
2022/01/08 13:34:45;;;;;;;7.05;2.35;;;4.40;99.90;;;;;;5113161;28;20106;-83
2022/01/08 13:37:21;;;;;;;4.75;2.00;;;4.20;99.90;;;;;;5095700;28;20048;-84
2022/01/08 13:39:55;;;;;;;3.80;2.40;;;4.00;99.90;;;;;;5095341;28;20052;-83